Time;durP1;ratioP1;P1;durP2;ratioP2;P2;SDS_P1;SDS_P2;PMS_P1;PMS_P2;Temp;Humidity;BMP_temperature;BMP_pressure;BME280_temperature;BME280_humidity;BME280_pressure;Samples;Min_cycle;Max_cycle;Signal;HPM_P1;HPM_P2
2024/01/01 16:48:55;;;;;;;;;;;;;;;;;;5071168;27;83184;-67
2024/01/01 16:51:22;;;;;;;;;;;;;;;;;;5065283;27;89055;-64
2024/01/01 16:53:47;;;;;;;;;;;;;;;;;;5055097;27;89502;-66
2024/01/01 16:56:13;;;;;;;;;;;;;;;;;;5062140;27;89477;-67
2024/01/01 16:58:38;;;;;;;;;;;;;;;;;;5065809;27;89551;-66
2024/01/01 17:01:03;;;;;;;;;;;;;;;;;;5062099;27;89800;-64
2024/01/01 17:03:28;;;;;;;;;;;;;;;;;;5059993;27;89245;-76
2024/01/01 17:05:55;;;;;;;;;;;;;;;;;;5061932;27;90043;-63
2024/01/01 17:08:21;;;;;;;;;;;;;;;;;;5062850;27;89857;-64
2024/01/01 17:10:46;;;;;;;;;;;;;;;;;;5060372;27;90102;-64
2024/01/01 17:13:11;;;;;;;;;;;;;;;;;;5054051;27;90588;-64
2024/01/01 17:15:37;;;;;;;;;;;;;;;;;;5055638;27;90127;-63
2024/01/01 17:18:02;;;;;;;;;;;;;;;;;;5062844;27;89681;-64
2024/01/01 17:20:28;;;;;;;;;;;;;;;;;;5062889;27;90542;-64
2024/01/01 17:22:53;;;;;;;;;;;;;;;;;;5062524;27;89686;-64
2024/01/01 17:25:18;;;;;;;;;;;;;;;;;;5063872;27;89549;-64
2024/01/01 17:27:43;;;;;;;;;;;;;;;;;;5059095;27;89359;-63
2024/01/01 17:30:09;;;;;;;;;;;;;;;;;;5070461;27;91040;-64
2024/01/01 17:32:35;;;;;;;;;;;;;;;;;;5058964;27;90618;-64
2024/01/01 17:35:00;;;;;;;;;;;;;;;;;;5067681;27;91593;-64
2024/01/01 17:37:25;;;;;;;;;;;;;;;;;;5064926;27;89558;-64
2024/01/01 17:39:51;;;;;;;;;;;;;;;;;;5063752;27;89195;-64
2024/01/01 17:42:16;;;;;;;;;;;;;;;;;;5055997;27;89054;-64
2024/01/01 17:44:41;;;;;;;;;;;;;;;;;;5055759;27;89401;-64
2024/01/01 17:47:06;;;;;;;;;;;;;;;;;;5056302;27;89197;-63
2024/01/01 17:49:32;;;;;;;;;;;;;;;;;;5063302;27;89429;-64
2024/01/01 17:51:58;;;;;;;;;;;;;;;;;;5061288;27;89398;-63
2024/01/01 17:54:23;;;;;;;;;;;;;;;;;;5064535;27;89145;-64
2024/01/01 17:56:49;;;;;;;;;;;;;;;;;;5060131;27;89894;-63
2024/01/01 17:59:14;;;;;;;;;;;;;;;;;;5056924;27;92129;-64
2024/01/01 18:01:42;;;;;;;;;;;;;;;;;;5043997;27;89066;-64
2024/01/01 18:04:08;;;;;;;;;;;;;;;;;;5034613;27;90035;-64
2024/01/01 18:06:34;;;;;;;;;;;;;;;;;;5045208;27;89140;-63
2024/01/01 18:08:59;;;;;;;;;;;;;;;;;;5049843;27;89168;-64
2024/01/01 18:11:24;;;;;;;;;;;;;;;;;;5052090;27;90074;-63
2024/01/01 18:13:50;;;;;;;;;;;;;;;;;;5051734;27;89396;-64
2024/01/01 18:16:15;;;;;;;;;;;;;;;;;;5049465;27;89669;-64
2024/01/01 18:18:42;;;;;;;;;;;;;;;;;;5045301;27;89308;-64
2024/01/01 18:21:07;;;;;;;;;;;;;;;;;;5050368;27;89041;-64
2024/01/01 18:23:33;;;;;;;;;;;;;;;;;;5047703;27;89434;-70
2024/01/01 18:25:58;;;;;;;;;;;;;;;;;;5051784;27;90206;-69
2024/01/01 18:28:23;;;;;;;;;;;;;;;;;;5046688;27;89162;-65
2024/01/01 18:30:51;;;;;;;;;;;;;;;;;;5045749;27;89740;-67
2024/01/01 18:33:17;;;;;;;;;;;;;;;;;;5047842;27;89166;-68
2024/01/01 18:35:42;;;;;;;;;;;;;;;;;;5049727;27;90151;-70
2024/01/01 18:38:07;;;;;;;;;;;;;;;;;;5048728;27;90302;-71
2024/01/01 18:40:32;;;;;;;;;;;;;;;;;;5040956;27;89017;-69
2024/01/01 18:42:58;;;;;;;;;;;;;;;;;;5042807;27;90140;-67
2024/01/01 18:45:23;;;;;;;;;;;;;;;;;;5046839;27;91235;-70
2024/01/01 18:47:48;;;;;;;;;;;;;;;;;;5043944;27;89321;-67
2024/01/01 18:50:14;;;;;;;;;;;;;;;;;;5047848;27;92534;-71
2024/01/01 18:52:39;;;;;;;;;;;;;;;;;;5047284;27;90530;-68
2024/01/01 18:55:05;;;;;;;;;;;;;;;;;;5050064;27;90111;-69
2024/01/01 18:57:30;;;;;;;;;;;;;;;;;;5041655;27;89420;-69
2024/01/01 18:59:58;;;;;;;;;;;;;;;;;;5041326;27;89047;-72
2024/01/01 19:02:23;;;;;;;;;;;;;;;;;;5050121;27;89468;-66
2024/01/01 19:04:49;;;;;;;;;;;;;;;;;;5044680;27;92204;-68
2024/01/01 19:07:14;;;;;;;;;;;;;;;;;;5046200;27;89302;-68
2024/01/01 19:09:40;;;;;;;;;;;;;;;;;;5048957;27;89631;-68
2024/01/01 19:12:06;;;;;;;;;;;;;;;;;;5044706;27;89690;-71
2024/01/01 19:14:31;;;;;;;;;;;;;;;;;;5049871;27;89710;-70
2024/01/01 19:16:56;;;;;;;;;;;;;;;;;;5045935;27;89469;-66
2024/01/01 19:19:22;;;;;;;;;;;;;;;;;;5044649;27;89027;-73
2024/01/01 19:21:48;;;;;;;;;;;;;;;;;;5041439;27;91721;-71
2024/01/01 19:24:13;;;;;;;;;;;;;;;;;;5042817;27;92460;-71
2024/01/01 19:26:46;;;;;;;;;;;;;;;;;;5039381;27;89105;-71
2024/01/01 19:29:11;;;;;;;;;;;;;;;;;;5045733;27;89635;-69
2024/01/01 19:31:39;;;;;;;;;;;;;;;;;;5040695;27;89625;-72
2024/01/01 19:34:05;;;;;;;;;;;;;;;;;;5043270;27;89400;-68
2024/01/01 19:36:30;;;;;;;;;;;;;;;;;;5049637;27;89502;-69
2024/01/01 19:38:56;;;;;;;;;;;;;;;;;;5040236;27;89644;-68
2024/01/01 19:41:21;;;;;;;;;;;;;;;;;;5043945;27;89650;-69
2024/01/01 19:43:46;;;;;;;;;;;;;;;;;;5040979;27;89313;-68
2024/01/01 19:46:21;;;;;;;;;;;;;;;;;;5039729;27;89068;-71
2024/01/01 19:48:47;;;;;;;;;;;;;;;;;;5036310;27;90737;-71
2024/01/01 19:51:12;;;;;;;;;;;;;;;;;;5048519;27;89346;-70
2024/01/01 19:53:37;;;;;;;;;;;;;;;;;;5045009;27;90423;-68
2024/01/01 19:56:03;;;;;;;;;;;;;;;;;;5048018;27;89522;-69
2024/01/01 19:58:28;;;;;;;;;;;;;;;;;;5040651;27;90360;-72
2024/01/01 20:00:53;;;;;;;;;;;;;;;;;;5037925;27;89662;-68
2024/01/01 20:03:19;;;;;;;;;;;;;;;;;;5039596;27;89126;-71
2024/01/01 20:05:44;;;;;;;;;;;;;;;;;;5040629;27;89197;-68
2024/01/01 20:08:11;;;;;;;;;;;;;;;;;;5034154;27;89429;-68
2024/01/01 20:10:37;;;;;;;;;;;;;;;;;;5041481;27;89278;-71
2024/01/01 20:13:02;;;;;;;;;;;;;;;;;;5040556;27;89635;-66
2024/01/01 20:15:27;;;;;;;;;;;;;;;;;;5038121;27;89375;-73
2024/01/01 20:17:52;;;;;;;;;;;;;;;;;;5039620;27;89199;-72
2024/01/01 20:20:18;;;;;;;;;;;;;;;;;;5040941;27;89220;-69
2024/01/01 20:22:45;;;;;;;;;;;;;;;;;;5042003;27;91515;-69
2024/01/01 20:25:10;;;;;;;;;;;;;;;;;;5039397;27;89958;-70
2024/01/01 20:27:35;;;;;;;;;;;;;;;;;;5034564;27;89534;-68
2024/01/01 20:30:00;;;;;;;;;;;;;;;;;;5042215;27;89489;-70
2024/01/01 20:32:26;;;;;;;;;;;;;;;;;;5041804;27;89179;-69
2024/01/01 20:34:51;;;;;;;;;;;;;;;;;;5041290;27;90795;-70
2024/01/01 20:37:16;;;;;;;;;;;;;;;;;;5043488;27;90001;-67
2024/01/01 20:39:41;;;;;;;;;;;;;;;;;;5037934;27;89161;-73
2024/01/01 20:42:07;;;;;;;;;;;;;;;;;;5045821;27;89472;-68
2024/01/01 20:44:32;;;;;;;;;;;;;;;;;;5046501;27;90690;-67
2024/01/01 20:46:57;;;;;;;;;;;;;;;;;;5037473;27;90101;-70
2024/01/01 20:49:23;;;;;;;;;;;;;;;;;;5034291;27;89212;-67
2024/01/01 20:51:50;;;;;;;;;;;;;;;;;;5031981;27;89161;-71
2024/01/01 20:54:15;;;;;;;;;;;;;;;;;;5045183;27;89704;-71
2024/01/01 20:56:42;;;;;;;;;;;;;;;;;;5041867;27;89202;-71
2024/01/01 20:59:09;;;;;;;;;;;;;;;;;;5034765;27;90216;-69
2024/01/01 21:01:38;;;;;;;;;;;;;;;;;;5038243;27;90774;-70
2024/01/01 21:04:03;;;;;;;;;;;;;;;;;;5046270;27;89710;-68
2024/01/01 21:06:28;;;;;;;;;;;;;;;;;;5041205;27;89181;-69
2024/01/01 21:08:53;;;;;;;;;;;;;;;;;;5039819;27;91791;-68
2024/01/01 21:11:19;;;;;;;;;;;;;;;;;;5048152;27;89123;-67
2024/01/01 21:13:44;;;;;;;;;;;;;;;;;;5038076;27;89743;-69
2024/01/01 21:16:11;;;;;;;;;;;;;;;;;;5045701;27;89214;-66
2024/01/01 21:18:36;;;;;;;;;;;;;;;;;;5044024;27;89638;-69
2024/01/01 21:21:01;;;;;;;;;;;;;;;;;;5035178;27;89188;-71
2024/01/01 21:23:27;;;;;;;;;;;;;;;;;;5041818;27;89119;-68
2024/01/01 21:25:52;;;;;;;;;;;;;;;;;;5041477;27;90950;-69
2024/01/01 21:28:18;;;;;;;;;;;;;;;;;;5044472;27;89097;-71
2024/01/01 21:30:44;;;;;;;;;;;;;;;;;;5034843;27;89169;-68
2024/01/01 21:33:09;;;;;;;;;;;;;;;;;;5042791;27;89455;-70
2024/01/01 21:35:34;;;;;;;;;;;;;;;;;;5043267;27;89300;-69
2024/01/01 21:38:00;;;;;;;;;;;;;;;;;;5049527;27;89043;-68
2024/01/01 21:40:26;;;;;;;;;;;;;;;;;;5044158;27;89369;-67
2024/01/01 21:42:51;;;;;;;;;;;;;;;;;;5041170;27;89199;-69
2024/01/01 21:45:17;;;;;;;;;;;;;;;;;;5048545;27;89929;-69
2024/01/01 21:47:42;;;;;;;;;;;;;;;;;;5050716;27;89471;-68
2024/01/01 21:50:07;;;;;;;;;;;;;;;;;;5042998;27;89654;-69
2024/01/01 21:52:32;;;;;;;;;;;;;;;;;;5041268;27;89488;-70
2024/01/01 21:54:58;;;;;;;;;;;;;;;;;;5042883;27;89539;-71
2024/01/01 21:57:23;;;;;;;;;;;;;;;;;;5037081;27;89048;-69
2024/01/01 21:59:48;;;;;;;;;;;;;;;;;;5049803;27;89542;-68
2024/01/01 22:02:14;;;;;;;;;;;;;;;;;;5038017;27;89149;-67
2024/01/01 22:04:39;;;;;;;;;;;;;;;;;;5039768;27;89313;-68
2024/01/01 22:07:04;;;;;;;;;;;;;;;;;;5043628;27;89786;-69
2024/01/01 22:09:30;;;;;;;;;;;;;;;;;;5046769;27;89782;-72
2024/01/01 22:11:56;;;;;;;;;;;;;;;;;;5037569;27;90807;-71
2024/01/01 22:14:21;;;;;;;;;;;;;;;;;;5039630;27;91977;-70
2024/01/01 22:16:47;;;;;;;;;;;;;;;;;;5042275;27;89522;-67
2024/01/01 22:19:15;;;;;;;;;;;;;;;;;;5043589;27;91081;-70
2024/01/01 22:21:41;;;;;;;;;;;;;;;;;;5043723;27;89596;-66
2024/01/01 22:24:10;;;;;;;;;;;;;;;;;;5042612;27;89473;-67
2024/01/01 22:26:36;;;;;;;;;;;;;;;;;;5043869;27;89506;-71
2024/01/01 22:29:02;;;;;;;;;;;;;;;;;;5043398;27;89134;-71
2024/01/01 22:31:27;;;;;;;;;;;;;;;;;;5050294;27;89088;-67
2024/01/01 22:33:52;;;;;;;;;;;;;;;;;;5042769;27;89133;-66
2024/01/01 22:36:17;;;;;;;;;;;;;;;;;;5040372;27;89299;-69
2024/01/01 22:38:43;;;;;;;;;;;;;;;;;;5042175;27;89454;-71
2024/01/01 22:41:08;;;;;;;;;;;;;;;;;;5044020;27;89300;-69
